Time;durP1;ratioP1;P1;durP2;ratioP2;P2;SDS_P1;SDS_P2;PMS_P1;PMS_P2;Temp;Humidity;BMP_temperature;BMP_pressure;BME280_temperature;BME280_humidity;BME280_pressure;Samples;Min_cycle;Max_cycle;Signal;HPM_P1;HPM_P2
2023/07/28 00:08:17;;;;;;;;;;;15.90;99.90;;;;;;20795114;28;20410;-76
2023/07/28 00:18:18;;;;;;;;;;;15.80;99.90;;;;;;20854178;22;19939;-78
2023/07/28 00:28:19;;;;;;;;;;;15.30;99.90;;;;;;20940066;28;19921;-78
2023/07/28 00:38:19;;;;;;;;;;;15.40;99.90;;;;;;20900381;28;19982;-78
2023/07/28 00:48:20;;;;;;;;;;;15.80;99.90;;;;;;20904837;28;19920;-79
2023/07/28 00:58:21;;;;;;;;;;;15.90;99.90;;;;;;20898939;28;19916;-79
2023/07/28 01:08:25;;;;;;;;;;;15.80;99.90;;;;;;20899936;28;19923;-80
2023/07/28 01:18:25;;;;;;;;;;;15.60;99.90;;;;;;20899841;28;19924;-79
2023/07/28 01:28:27;;;;;;;;;;;15.60;99.90;;;;;;20897986;28;20295;-79
2023/07/28 01:38:28;;;;;;;;;;;15.60;99.90;;;;;;20900317;28;19924;-80
2023/07/28 01:48:29;;;;;;;;;;;15.60;99.90;;;;;;20896776;28;20298;-79
2023/07/28 01:58:29;;;;;;;;;;;15.50;99.90;;;;;;20905225;28;19939;-80
2023/07/28 02:08:30;;;;;;;;;;;15.30;99.90;;;;;;20896027;28;19978;-79
2023/07/28 02:18:31;;;;;;;;;;;15.10;99.90;;;;;;20893829;28;19924;-78
2023/07/28 02:28:31;;;;;;;;;;;15.10;99.90;;;;;;20895906;28;19921;-79
2023/07/28 02:38:32;;;;;;;;;;;15.20;99.90;;;;;;20893550;28;19925;-79
2023/07/28 02:48:33;;;;;;;;;;;15.30;99.90;;;;;;20892239;28;20329;-79
2023/07/28 02:58:33;;;;;;;;;;;15.00;99.90;;;;;;20894234;28;19947;-76
2023/07/28 03:08:34;;;;;;;;;;;15.00;99.90;;;;;;20905440;28;19924;-78
2023/07/28 03:18:55;;;;;;;;;;;15.00;99.90;;;;;;20907314;28;19928;-79
2023/07/28 03:28:55;;;;;;;;;;;15.00;99.90;;;;;;20898364;28;19928;-79
2023/07/28 03:38:56;;;;;;;;;;;14.90;99.90;;;;;;20906155;28;19924;-78
2023/07/28 03:48:58;;;;;;;;;;;14.80;99.90;;;;;;20906514;28;19920;-79
2023/07/28 03:58:59;;;;;;;;;;;14.70;99.90;;;;;;20908739;28;20064;-78
2023/07/28 04:08:59;;;;;;;;;;;14.50;99.90;;;;;;20913320;28;19920;-80
2023/07/28 04:19:00;;;;;;;;;;;14.50;99.90;;;;;;20910805;28;20385;-78
2023/07/28 04:29:01;;;;;;;;;;;14.50;99.90;;;;;;20920118;28;19913;-78
2023/07/28 04:39:02;;;;;;;;;;;14.50;99.90;;;;;;20922705;28;20023;-78
2023/07/28 04:49:03;;;;;;;;;;;14.50;99.90;;;;;;20919136;28;20011;-79
2023/07/28 04:59:22;;;;;;;;;;;14.70;99.90;;;;;;20928943;28;19920;-79
2023/07/28 05:09:23;;;;;;;;;;;15.10;99.90;;;;;;20908699;28;19951;-76
2023/07/28 05:19:24;;;;;;;;;;;15.20;99.90;;;;;;20910901;28;19927;-78
2023/07/28 05:29:37;;;;;;;;;;;15.70;99.90;;;;;;20898781;28;19920;-78
2023/07/28 05:39:40;;;;;;;;;;;16.00;99.90;;;;;;20889796;28;19932;-79
2023/07/28 05:49:41;;;;;;;;;;;16.40;99.90;;;;;;20891748;28;19990;-80
2023/07/28 05:59:42;;;;;;;;;;;16.90;99.90;;;;;;20892769;28;19956;-79
2023/07/28 06:09:42;;;;;;;;;;;17.10;99.90;;;;;;20897481;28;20460;-78
2023/07/28 06:19:43;;;;;;;;;;;17.60;99.90;;;;;;20869351;22;19933;-77
2023/07/28 06:29:44;;;;;;;;;;;18.20;99.90;;;;;;20785567;28;20413;-77
2023/07/28 06:39:45;;;;;;;;;;;18.70;99.90;;;;;;20787289;28;19921;-76
2023/07/28 06:49:46;;;;;;;;;;;18.20;99.90;;;;;;20783540;28;19922;-77
2023/07/28 06:59:47;;;;;;;;;;;18.10;99.90;;;;;;20776691;28;19929;-76
2023/07/28 07:09:47;;;;;;;;;;;18.90;99.90;;;;;;20782039;28;20359;-77
2023/07/28 07:19:48;;;;;;;;;;;20.00;99.90;;;;;;20782414;28;19932;-75
2023/07/28 07:29:48;;;;;;;;;;;21.00;99.90;;;;;;20787156;28;19921;-76
2023/07/28 07:39:50;;;;;;;;;;;21.10;99.90;;;;;;20778920;28;19925;-77
2023/07/28 07:49:50;;;;;;;;;;;21.60;99.90;;;;;;20778520;28;19925;-77
2023/07/28 07:59:51;;;;;;;;;;;22.20;99.90;;;;;;20768909;28;19925;-77
2023/07/28 08:09:52;;;;;;;;;;;23.00;99.90;;;;;;20775768;28;19925;-77
2023/07/28 08:19:52;;;;;;;;;;;23.80;99.90;;;;;;20779830;28;19925;-75
2023/07/28 08:29:53;;;;;;;;;;;24.30;99.90;;;;;;20786064;28;19921;-76
2023/07/28 08:39:54;;;;;;;;;;;24.10;99.90;;;;;;20772323;28;19928;-76
2023/07/28 08:49:55;;;;;;;;;;;23.90;99.90;;;;;;20772049;28;19921;-77
2023/07/28 08:59:55;;;;;;;;;;;24.40;99.90;;;;;;20770443;28;19930;-76
2023/07/28 09:10:00;;;;;;;;;;;25.50;99.90;;;;;;20770229;28;19927;-76
2023/07/28 09:20:01;;;;;;;;;;;25.90;99.90;;;;;;20769396;28;20026;-76
2023/07/28 09:30:02;;;;;;;;;;;25.60;99.90;;;;;;20762158;28;20823;-76
2023/07/28 09:40:04;;;;;;;;;;;26.20;99.90;;;;;;20768148;28;20395;-76
2023/07/28 09:50:06;;;;;;;;;;;25.50;99.90;;;;;;20766427;28;19930;-76
2023/07/28 10:00:08;;;;;;;;;;;26.70;99.90;;;;;;20775349;28;19921;-76
2023/07/28 10:10:13;;;;;;;;;;;27.60;99.90;;;;;;20775734;28;19969;-76
2023/07/28 10:20:34;;;;;;;;;;;27.30;99.90;;;;;;20782529;28;19925;-77
2023/07/28 10:30:36;;;;;;;;;;;27.40;99.90;;;;;;20781050;28;19941;-75
2023/07/28 10:40:38;;;;;;;;;;;28.30;99.90;;;;;;20780780;28;19921;-74
2023/07/28 10:50:39;;;;;;;;;;;26.90;99.90;;;;;;20780304;28;20360;-74
2023/07/28 11:00:41;;;;;;;;;;;26.20;99.90;;;;;;20783894;28;19929;-75
2023/07/28 11:10:41;;;;;;;;;;;25.80;99.90;;;;;;20776704;28;20377;-74
2023/07/28 11:20:42;;;;;;;;;;;25.40;99.90;;;;;;20779214;28;19932;-75
2023/07/28 11:30:43;;;;;;;;;;;25.60;99.90;;;;;;20778845;28;20547;-76
2023/07/28 11:40:45;;;;;;;;;;;25.30;99.90;;;;;;20775801;28;20412;-75
2023/07/28 11:50:46;;;;;;;;;;;25.20;99.90;;;;;;20783369;28;20003;-76
2023/07/28 12:00:46;;;;;;;;;;;25.20;99.90;;;;;;20781457;28;19921;-77
2023/07/28 12:10:54;;;;;;;;;;;26.40;99.90;;;;;;20780358;28;19929;-75
2023/07/28 12:20:55;;;;;;;;;;;26.00;99.90;;;;;;20778191;28;19925;-76
2023/07/28 12:30:58;;;;;;;;;;;25.50;99.90;;;;;;20775015;28;20001;-77
2023/07/28 12:40:59;;;;;;;;;;;26.60;99.90;;;;;;20765939;28;19921;-75
2023/07/28 12:51:00;;;;;;;;;;;26.90;99.90;;;;;;20764002;28;19995;-76
2023/07/28 13:01:03;;;;;;;;;;;25.80;99.90;;;;;;20747212;28;19924;-76
2023/07/28 13:11:04;;;;;;;;;;;25.60;99.90;;;;;;20760331;28;19922;-77
2023/07/28 13:21:04;;;;;;;;;;;25.40;99.90;;;;;;20746366;28;19924;-76
2023/07/28 13:31:05;;;;;;;;;;;24.90;99.90;;;;;;20773696;28;19917;-78
2023/07/28 13:41:07;;;;;;;;;;;24.90;99.90;;;;;;20786499;28;20506;-78
2023/07/28 13:51:08;;;;;;;;;;;24.50;99.90;;;;;;20767683;28;20008;-77
2023/07/28 14:01:09;;;;;;;;;;;24.50;99.90;;;;;;20736530;28;19936;-77
2023/07/28 14:11:09;;;;;;;;;;;24.10;99.90;;;;;;20715232;28;20324;-76
2023/07/28 14:21:10;;;;;;;;;;;23.80;99.90;;;;;;20753859;28;19924;-75
2023/07/28 14:31:11;;;;;;;;;;;23.60;99.90;;;;;;20745554;28;19917;-75
2023/07/28 14:41:12;;;;;;;;;;;22.80;99.90;;;;;;20758499;28;19913;-76
2023/07/28 14:51:13;;;;;;;;;;;21.00;99.90;;;;;;20741250;28;19921;-76
2023/07/28 15:01:13;;;;;;;;;;;22.00;99.90;;;;;;20763329;28;19921;-76
2023/07/28 15:11:14;;;;;;;;;;;22.40;99.90;;;;;;20756954;28;19924;-75
2023/07/28 15:21:15;;;;;;;;;;;22.10;99.90;;;;;;20772644;28;19924;-74
2023/07/28 15:31:15;;;;;;;;;;;21.80;99.90;;;;;;20762306;28;19918;-76
2023/07/28 15:41:16;;;;;;;;;;;21.80;99.90;;;;;;20753970;28;19914;-76
2023/07/28 15:51:17;;;;;;;;;;;21.60;99.90;;;;;;20752792;28;19921;-76
2023/07/28 16:01:17;;;;;;;;;;;21.40;99.90;;;;;;20742502;28;19914;-75
2023/07/28 16:11:20;;;;;;;;;;;21.00;99.90;;;;;;20734919;28;19924;-75
2023/07/28 16:21:21;;;;;;;;;;;21.10;99.90;;;;;;20751249;28;19918;-77
2023/07/28 16:31:21;;;;;;;;;;;20.90;99.90;;;;;;20752106;28;19924;-76
2023/07/28 16:41:22;;;;;;;;;;;21.00;99.90;;;;;;20749877;28;19924;-77
2023/07/28 16:51:23;;;;;;;;;;;21.20;99.90;;;;;;20757680;28;20007;-78
2023/07/28 17:01:23;;;;;;;;;;;20.90;99.90;;;;;;20759650;28;19935;-79
2023/07/28 17:11:24;;;;;;;;;;;20.60;99.90;;;;;;20761286;28;19965;-78
2023/07/28 17:21:25;;;;;;;;;;;20.50;99.90;;;;;;20763485;28;19917;-79
2023/07/28 17:31:25;;;;;;;;;;;20.50;99.90;;;;;;20769508;28;19968;-77
2023/07/28 17:41:26;;;;;;;;;;;20.60;99.90;;;;;;20761953;28;19960;-78
2023/07/28 17:51:27;;;;;;;;;;;20.30;99.90;;;;;;20762283;28;20388;-78
2023/07/28 18:01:28;;;;;;;;;;;20.00;99.90;;;;;;20761331;28;19918;-78
2023/07/28 18:11:28;;;;;;;;;;;20.10;99.90;;;;;;20752291;28;20539;-76
2023/07/28 18:21:31;;;;;;;;;;;20.20;99.90;;;;;;20848876;22;19924;-86
2023/07/28 18:31:32;;;;;;;;;;;20.20;99.90;;;;;;20913203;28;19976;-85
2023/07/28 18:41:33;;;;;;;;;;;20.00;99.90;;;;;;20942954;28;19912;-86
2023/07/28 18:51:33;;;;;;;;;;;19.60;99.90;;;;;;20985471;28;20006;-86
2023/07/28 19:01:34;;;;;;;;;;;19.40;99.90;;;;;;20984120;28;19913;-86
2023/07/28 19:11:35;;;;;;;;;;;19.20;99.90;;;;;;20982767;28;19923;-86
2023/07/28 19:21:35;;;;;;;;;;;18.60;99.90;;;;;;20983213;28;20287;-86
2023/07/28 19:31:36;;;;;;;;;;;18.70;99.90;;;;;;21000171;28;19921;-84
2023/07/28 19:41:37;;;;;;;;;;;18.40;99.90;;;;;;20982663;28;19938;-85
2023/07/28 19:51:37;;;;;;;;;;;18.30;99.90;;;;;;20981559;28;19917;-85
2023/07/28 20:01:38;;;;;;;;;;;18.10;99.90;;;;;;20997978;28;19995;-84
2023/07/28 20:11:39;;;;;;;;;;;17.90;99.90;;;;;;20998179;28;19916;-84
2023/07/28 20:21:39;;;;;;;;;;;17.60;99.90;;;;;;20979910;28;19916;-84
2023/07/28 20:31:40;;;;;;;;;;;17.40;99.90;;;;;;20994217;28;19916;-84
2023/07/28 20:41:42;;;;;;;;;;;17.40;99.90;;;;;;20975553;28;19947;-85
2023/07/28 20:51:42;;;;;;;;;;;17.40;99.90;;;;;;20975500;28;20578;-84
2023/07/28 21:01:43;;;;;;;;;;;17.60;99.90;;;;;;20992769;28;20321;-86
2023/07/28 21:11:44;;;;;;;;;;;17.20;99.90;;;;;;20993022;28;19916;-84
2023/07/28 21:21:44;;;;;;;;;;;17.10;99.90;;;;;;20975706;28;20377;-84
2023/07/28 21:31:45;;;;;;;;;;;17.20;99.90;;;;;;20989265;28;19938;-84
2023/07/28 21:41:46;;;;;;;;;;;17.10;99.90;;;;;;20962267;28;19949;-84
2023/07/28 21:51:46;;;;;;;;;;;17.00;99.90;;;;;;20906798;28;20266;-85
2023/07/28 22:01:47;;;;;;;;;;;17.10;99.90;;;;;;20906126;28;19916;-84
2023/07/28 22:11:47;;;;;;;;;;;17.20;99.90;;;;;;20931659;28;19920;-85
2023/07/28 22:21:48;;;;;;;;;;;17.10;99.90;;;;;;20971564;28;19923;-85
2023/07/28 22:31:49;;;;;;;;;;;17.10;99.90;;;;;;20988839;28;20011;-84
2023/07/28 22:41:50;;;;;;;;;;;17.10;99.90;;;;;;20986206;28;19912;-84
2023/07/28 22:51:50;;;;;;;;;;;16.90;99.90;;;;;;20986291;28;19967;-84
2023/07/28 23:01:51;;;;;;;;;;;17.10;99.90;;;;;;20969130;28;20334;-84
2023/07/28 23:11:53;;;;;;;;;;;17.20;99.90;;;;;;20958485;28;19960;-84
2023/07/28 23:21:53;;;;;;;;;;;17.20;99.90;;;;;;20890524;28;19917;-83
2023/07/28 23:31:54;;;;;;;;;;;17.00;99.90;;;;;;20916406;28;19924;-84
2023/07/28 23:41:55;;;;;;;;;;;16.90;99.90;;;;;;20944413;28;19928;-83
2023/07/28 23:51:56;;;;;;;;;;;16.50;99.90;;;;;;21011050;28;19916;-83
